地図

経路データ

SID SEASON NUMBER BASIN SUBBASIN NAME ISO_TIME NATURE LAT LON WMO_WIND WMO_PRES WMO_AGENCY TRACK_TYPE DIST2LAND LANDFALL IFLAG USA_AGENCY USA_ATCF_ID USA_LAT USA_LON USA_RECORD USA_STATUS USA_WIND USA_PRES USA_SSHS USA_R34_NE USA_R34_SE USA_R34_SW USA_R34_NW USA_R50_NE USA_R50_SE USA_R50_SW USA_R50_NW USA_R64_NE USA_R64_SE USA_R64_SW USA_R64_NW USA_POCI USA_ROCI USA_RMW USA_EYE TOKYO_LAT TOKYO_LON TOKYO_GRADE TOKYO_WIND TOKYO_PRES TOKYO_R50_DIR TOKYO_R50_LONG TOKYO_R50_SHORT TOKYO_R30_DIR TOKYO_R30_LONG TOKYO_R30_SHORT TOKYO_LAND CMA_LAT CMA_LON CMA_CAT CMA_WIND CMA_PRES HKO_LAT HKO_LON HKO_CAT HKO_WIND HKO_PRES NEWDELHI_LAT NEWDELHI_LON NEWDELHI_GRADE NEWDELHI_WIND NEWDELHI_PRES NEWDELHI_CI NEWDELHI_DP NEWDELHI_POCI REUNION_LAT REUNION_LON REUNION_TYPE REUNION_WIND REUNION_PRES REUNION_TNUM REUNION_CI REUNION_RMW REUNION_R34_NE REUNION_R34_SE REUNION_R34_SW REUNION_R34_NW REUNION_R50_NE REUNION_R50_SE REUNION_R50_SW REUNION_R50_NW REUNION_R64_NE REUNION_R64_SE REUNION_R64_SW REUNION_R64_NW BOM_LAT BOM_LON BOM_TYPE BOM_WIND BOM_PRES BOM_TNUM BOM_CI BOM_RMW BOM_R34_NE BOM_R34_SE BOM_R34_SW BOM_R34_NW BOM_R50_NE BOM_R50_SE BOM_R50_SW BOM_R50_NW BOM_R64_NE BOM_R64_SE BOM_R64_SW BOM_R64_NW BOM_ROCI BOM_POCI BOM_EYE BOM_POS_METHOD BOM_PRES_METHOD NADI_LAT NADI_LON NADI_CAT NADI_WIND NADI_PRES WELLINGTON_LAT WELLINGTON_LON WELLINGTON_WIND WELLINGTON_PRES DS824_LAT DS824_LON DS824_STAGE DS824_WIND DS824_PRES TD9636_LAT TD9636_LON TD9636_STAGE TD9636_WIND TD9636_PRES TD9635_LAT TD9635_LON TD9635_WIND TD9635_PRES TD9635_ROCI NEUMANN_LAT NEUMANN_LON NEUMANN_CLASS NEUMANN_WIND NEUMANN_PRES MLC_LAT MLC_LON MLC_CLASS MLC_WIND MLC_PRES USA_GUST BOM_GUST BOM_GUST_PER REUNION_GUST REUNION_GUST_PER USA_SEAHGT USA_SEARAD_NE USA_SEARAD_SE USA_SEARAD_SW USA_SEARAD_NW STORM_SPEED STORM_DIR
1893265N17115 1893 47 WP MM NOT_NAMED 1893-09-21 16:00:00 NR 17.0000 115.300 main 482 482 __________O___ -1 17.0000 115.300 7 0 0
1893265N17115 1893 47 WP MM NOT_NAMED 1893-09-21 18:00:00 NR 17.0104 115.305 main 482 482 __________P___ -1 17.0104 115.305 7 0 331
1893265N17115 1893 47 WP MM NOT_NAMED 1893-09-21 21:00:00 NR 17.0346 115.292 main 482 482 __________P___ -1 17.0346 115.292 7 1 312
1893265N17115 1893 47 WP MM NOT_NAMED 1893-09-22 00:00:00 NR 17.0810 115.225 main 495 495 __________P___ -1 17.0810 115.225 7 2 302
1893265N17115 1893 47 WP MM NOT_NAMED 1893-09-22 03:00:00 NR 17.1627 115.075 main 508 500 __________P___ -1 17.1627 115.075 7 4 299
1893265N17115 1893 47 WP MM NOT_NAMED 1893-09-22 04:00:00 NR 17.2000 115.000 main 500 476 __________O___ -1 17.2000 115.000 7 6 297
1893265N17115 1893 47 WP MM NOT_NAMED 1893-09-22 06:00:00 NR 17.2911 114.811 main 476 437 __________P___ -1 17.2911 114.811 7 7 297
1893265N17115 1893 47 WP MM NOT_NAMED 1893-09-22 09:00:00 NR 17.4593 114.459 main 437 395 __________P___ -1 17.4593 114.459 7 8 297
1893265N17115 1893 47 WP MM NOT_NAMED 1893-09-22 12:00:00 NR 17.6482 114.072 main 395 348 __________P___ -1 17.6482 114.072 7 8 298
1893265N17115 1893 47 WP MM NOT_NAMED 1893-09-22 15:00:00 NR 17.8391 113.707 main 348 333 __________P___ -1 17.8391 113.707 7 8 299
1893265N17115 1893 47 WP MM NOT_NAMED 1893-09-22 16:00:00 NR 17.9000 113.600 main 333 318 __________O___ -1 17.9000 113.600 3 5 305
1893265N17115 1893 47 WP MM NOT_NAMED 1893-09-22 18:00:00 NR 17.9946 113.474 main 318 294 __________P___ -1 17.9946 113.474 3 4 312
1893265N17115 1893 47 WP MM NOT_NAMED 1893-09-22 21:00:00 NR 18.1304 113.331 main 294 273 __________P___ -1 18.1304 113.331 3 4 316
1893265N17115 1893 47 WP MM NOT_NAMED 1893-09-23 00:00:00 NR 18.2727 113.189 main 273 249 __________P___ -1 18.2727 113.189 3 4 314
1893265N17115 1893 47 WP MM NOT_NAMED 1893-09-23 03:00:00 NR 18.4374 112.990 main 249 234 __________P___ -1 18.4374 112.990 3 5 310
1893265N17115 1893 47 WP MM NOT_NAMED 1893-09-23 04:00:00 NR 18.5000 112.900 main 234 201 __________O___ -1 18.5000 112.900 4 8 302
1893265N17115 1893 47 WP MM NOT_NAMED 1893-09-23 06:00:00 NR 18.6443 112.642 main 201 148 __________P___ -1 18.6443 112.642 4 9 299
1893265N17115 1893 47 WP MM NOT_NAMED 1893-09-23 09:00:00 NR 18.8858 112.178 main 148 92 __________P___ -1 18.8858 112.178 4 11 299
1893265N17115 1893 47 WP MM NOT_NAMED 1893-09-23 12:00:00 NR 19.1458 111.667 main 92 30 __________P___ -1 19.1458 111.667 4 11 299
1893265N17115 1893 47 WP MM NOT_NAMED 1893-09-23 15:00:00 NR 19.4120 111.160 main 30 10 __________P___ -1 19.4120 111.160 4 11 299
1893265N17115 1893 47 WP MM NOT_NAMED 1893-09-23 16:00:00 NR 19.5000 111.000 main 10 0 __________O___ -1 19.5000 111.000 4 10 300
1893265N17115 1893 47 WP MM NOT_NAMED 1893-09-23 18:00:00 NR 19.6586 110.714 main 0 0 __________P___ -1 19.6586 110.714 4 9 301
1893265N17115 1893 47 WP MM NOT_NAMED 1893-09-23 21:00:00 NR 19.8965 110.309 main 0 0 __________P___ -1 19.8965 110.309 4 9 304
1893265N17115 1893 47 WP MM NOT_NAMED 1893-09-24 00:00:00 NR 20.1427 109.938 main 11 0 __________P___ -1 20.1427 109.938 4 8 308
1893265N17115 1893 47 WP MM NOT_NAMED 1893-09-24 03:00:00 NR 20.4066 109.603 main 23 20 __________P___ -1 20.4066 109.603 4 8 311
1893265N17115 1893 47 WP MM NOT_NAMED 1893-09-24 04:00:00 NR 20.5000 109.500 main 31 31 __________O___ -1 20.5000 109.500 4 8 314
1893265N17115 1893 47 WP MM NOT_NAMED 1893-09-24 06:00:00 NR 20.6809 109.299 main 43 43 __________P___ -1 20.6809 109.299 4 8 317
1893265N17115 1893 47 WP MM NOT_NAMED 1893-09-24 09:00:00 NR 20.9711 109.029 main 49 33 __________P___ -1 20.9711 109.029 4 8 322
1893265N17115 1893 47 WP MM NOT_NAMED 1893-09-24 12:00:00 NR 21.2948 108.790 main 33 0 __________P___ -1 21.2948 108.790 4 8 328
1893265N17115 1893 47 WP MM NOT_NAMED 1893-09-24 15:00:00 NR 21.6644 108.570 main 0 0 __________P___ -1 21.6644 108.570 4 9 332
1893265N17115 1893 47 WP MM NOT_NAMED 1893-09-24 16:00:00 NR 21.8000 108.500 main 0 0 __________O___ -1 21.8000 108.500 4 9 336
1893265N17115 1893 47 WP MM NOT_NAMED 1893-09-24 18:00:00 NR 22.0910 108.362 main 0 0 __________P___ -1 22.0910 108.362 4 10 338
1893265N17115 1893 47 WP MM NOT_NAMED 1893-09-24 21:00:00 NR 22.5695 108.160 main 0 0 __________P___ -1 22.5695 108.160 4 11 340
1893265N17115 1893 47 WP MM NOT_NAMED 1893-09-25 00:00:00 NR 23.0842 107.962 main 0 0 __________P___ -1 23.0842 107.962 4 11 341
1893265N17115 1893 47 WP MM NOT_NAMED 1893-09-25 03:00:00 NR 23.6197 107.766 main 0 0 __________P___ -1 23.6197 107.766 4 11 341
1893265N17115 1893 47 WP MM NOT_NAMED 1893-09-25 04:00:00 NR 23.8000 107.700 main 0 __________O___ -1 23.8000 107.700 7 11 342

デジタル台風データ・検索

IBTrACS Databaseについて

本データベースは、米国NOAAが公開する1842年以降の世界の熱帯低気圧のベストトラックデータアーカイブInternational Best Track Archive for Climate Stewardship (IBTrACS)を、ウェブで閲覧しやすい形式に変換したものです。

最終更新日:2021-12-03